In Rescue
 
Open Full Screen Window  High Contrast Mode
Wind Gusting 00 knots
06
January 18, 2019 8:21 AM EST
Present Weather: Mist
Weather Information
Wind Direction
  280 °
Wind Speed
  06 kt (7 mph)
Wind Gust
  00 kt (0 mph)
Altimeter
30.10 in
Visibility
4 SM
Temperature
00° C
32° F
Dewpoint
00° C
32° F
Humidity
100%
1hr Rain Fall
00.00 in.
24hr Rain Fall
00.02 in.
Sky Condition
Overcast @ 800 ft
IFR

METAR KDLZ 181321Z AUTO 28006KT 4SM BR OVC008 00/00 A3010 RMK AO2

FAA Disclaimer: The data displayed is for advisory purposes only and is not to be used for flight planning or operations.